createdAt,value
2018-11-25T00:00:13.813Z,1004.86
2018-11-25T00:00:39.953Z,1004.86
2018-11-25T00:01:06.158Z,1004.82
2018-11-25T00:01:32.272Z,1004.85
2018-11-25T00:01:58.407Z,1004.81
2018-11-25T00:02:24.538Z,1004.83
2018-11-25T00:02:50.717Z,1004.87
2018-11-25T00:03:16.839Z,1004.84
2018-11-25T00:03:42.949Z,1004.89
2018-11-25T00:04:09.068Z,1004.87
2018-11-25T00:04:35.175Z,1004.87
2018-11-25T00:05:01.331Z,1004.81
2018-11-25T00:05:27.497Z,1004.89
2018-11-25T00:05:53.625Z,1004.9
2018-11-25T00:06:19.764Z,1004.84
2018-11-25T00:06:45.868Z,1004.83
2018-11-25T00:07:12.031Z,1004.88
2018-11-25T00:07:38.219Z,1004.87
2018-11-25T00:08:04.355Z,1004.88
2018-11-25T00:08:30.521Z,1004.86
2018-11-25T00:08:56.640Z,1004.88
2018-11-25T00:09:22.810Z,1004.86
2018-11-25T00:09:48.918Z,1004.86
2018-11-25T00:10:15.109Z,1004.86
2018-11-25T00:10:41.278Z,1004.9
2018-11-25T00:11:07.445Z,1004.88
2018-11-25T00:11:33.610Z,1004.87
2018-11-25T00:11:59.781Z,1004.89
2018-11-25T00:12:25.938Z,1004.87
2018-11-25T00:12:52.100Z,1004.88
2018-11-25T00:13:18.234Z,1004.85
2018-11-25T00:13:44.345Z,1004.86
2018-11-25T00:14:10.481Z,1004.88
2018-11-25T00:14:36.619Z,1004.86
2018-11-25T00:15:02.764Z,1004.88
2018-11-25T00:15:28.929Z,1004.88
2018-11-25T00:15:55.117Z,1004.87
2018-11-25T00:16:21.253Z,1004.89
2018-11-25T00:16:47.363Z,1004.9
2018-11-25T00:17:13.499Z,1004.88
2018-11-25T00:17:39.640Z,1004.87
2018-11-25T00:18:05.772Z,1004.89
2018-11-25T00:18:31.904Z,1004.88
2018-11-25T00:18:58.098Z,1004.9
2018-11-25T00:19:24.244Z,1004.95
2018-11-25T00:19:50.348Z,1004.91
2018-11-25T00:20:16.512Z,1004.96
2018-11-25T00:20:42.671Z,1004.91
2018-11-25T00:21:08.809Z,1004.93
2018-11-25T00:21:34.976Z,1004.91
2018-11-25T00:22:01.134Z,1004.93
2018-11-25T00:22:27.322Z,1004.87
2018-11-25T00:22:53.488Z,1004.92
2018-11-25T00:23:19.676Z,1004.9
2018-11-25T00:23:45.781Z,1004.9
2018-11-25T00:24:11.974Z,1004.88
2018-11-25T00:24:38.080Z,1004.87
2018-11-25T00:25:04.234Z,1004.82
2018-11-25T00:25:30.396Z,1004.84
2018-11-25T00:25:56.560Z,1004.87
2018-11-25T00:26:22.711Z,1004.83
2018-11-25T00:26:48.894Z,1004.86
2018-11-25T00:27:15.064Z,1004.89
2018-11-25T00:27:41.197Z,1004.84
2018-11-25T00:28:07.308Z,1004.87
2018-11-25T00:28:33.438Z,1004.84
2018-11-25T00:28:59.548Z,1004.88
2018-11-25T00:29:25.676Z,1004.83
2018-11-25T00:29:51.842Z,1004.78
2018-11-25T00:30:18.013Z,1004.85
2018-11-25T00:30:44.236Z,1004.85
2018-11-25T00:31:10.372Z,1004.84
2018-11-25T00:31:36.467Z,1004.86
2018-11-25T00:32:02.659Z,1004.86
2018-11-25T00:32:28.789Z,1004.86
2018-11-25T00:32:54.948Z,1004.85
2018-11-25T00:33:21.164Z,1004.86
2018-11-25T00:33:47.294Z,1004.87
2018-11-25T00:34:13.453Z,1004.89
2018-11-25T00:34:39.620Z,1004.84
2018-11-25T00:35:05.755Z,1004.84
2018-11-25T00:35:31.912Z,1004.85
2018-11-25T00:35:58.050Z,1004.84
2018-11-25T00:36:24.281Z,1004.88
2018-11-25T00:36:50.402Z,1004.86
2018-11-25T00:37:16.567Z,1004.85
2018-11-25T00:37:47.904Z,1004.88
2018-11-25T00:38:08.968Z,1004.89
2018-11-25T00:38:35.092Z,1004.88
2018-11-25T00:39:01.232Z,1004.86
2018-11-25T00:39:27.361Z,1004.85
2018-11-25T00:39:53.521Z,1004.82
2018-11-25T00:40:19.633Z,1004.83
2018-11-25T00:40:45.732Z,1004.85
2018-11-25T00:41:11.897Z,1004.88
2018-11-25T00:41:38.027Z,1004.82
2018-11-25T00:42:04.168Z,1004.8
2018-11-25T00:42:30.308Z,1004.84
2018-11-25T00:42:56.432Z,1004.85
2018-11-25T00:43:22.567Z,1004.83
2018-11-25T00:43:48.667Z,1004.8
2018-11-25T00:44:14.775Z,1004.82
2018-11-25T00:44:40.968Z,1004.83
2018-11-25T00:45:07.088Z,1004.82
2018-11-25T00:45:33.296Z,1004.79
2018-11-25T00:45:59.429Z,1004.81
2018-11-25T00:46:25.627Z,1004.81
2018-11-25T00:46:51.757Z,1004.83
2018-11-25T00:47:17.895Z,1004.81
2018-11-25T00:47:43.997Z,1004.81
2018-11-25T00:48:10.100Z,1004.84
2018-11-25T00:48:36.237Z,1004.8
2018-11-25T00:49:02.404Z,1004.78
2018-11-25T00:49:28.541Z,1004.8
2018-11-25T00:49:54.679Z,1004.81
2018-11-25T00:50:20.840Z,1004.79
2018-11-25T00:50:47.042Z,1004.83
2018-11-25T00:51:13.178Z,1004.8
2018-11-25T00:51:39.343Z,1004.8
2018-11-25T00:52:05.514Z,1004.8
2018-11-25T00:52:31.646Z,1004.79
2018-11-25T00:52:57.800Z,1004.8
2018-11-25T00:53:23.962Z,1004.83
2018-11-25T00:53:50.101Z,1004.8
2018-11-25T00:54:16.265Z,1004.82
2018-11-25T00:54:42.396Z,1004.81
2018-11-25T00:55:08.534Z,1004.8
2018-11-25T00:55:34.704Z,1004.81
2018-11-25T00:56:00.867Z,1004.81
2018-11-25T00:56:27.064Z,1004.81
2018-11-25T00:56:53.198Z,1004.82
2018-11-25T00:57:19.364Z,1004.82
2018-11-25T00:57:45.492Z,1004.83
2018-11-25T00:58:11.660Z,1004.86
2018-11-25T00:58:37.843Z,1004.82
2018-11-25T00:59:03.950Z,1004.83
2018-11-25T00:59:30.111Z,1004.81
2018-11-25T00:59:56.254Z,1004.84
2018-11-25T01:00:22.410Z,1004.86
2018-11-25T01:00:48.576Z,1004.82
2018-11-25T01:01:14.762Z,1004.82
2018-11-25T01:01:40.983Z,1004.84
2018-11-25T01:02:07.171Z,1004.85
2018-11-25T01:02:33.358Z,1004.85
2018-11-25T01:02:59.486Z,1004.84
2018-11-25T01:03:25.624Z,1004.82
2018-11-25T01:03:51.733Z,1004.86
2018-11-25T01:04:17.872Z,1004.87
2018-11-25T01:04:43.974Z,1004.82
2018-11-25T01:05:10.116Z,1004.86
2018-11-25T01:05:36.280Z,1004.83
2018-11-25T01:06:02.428Z,1004.87
2018-11-25T01:06:28.555Z,1004.85
2018-11-25T01:06:54.663Z,1004.79
2018-11-25T01:07:20.794Z,1004.81
2018-11-25T01:07:46.967Z,1004.86
2018-11-25T01:08:13.121Z,1004.8
2018-11-25T01:08:39.288Z,1004.84
2018-11-25T01:09:05.449Z,1004.83
2018-11-25T01:09:31.609Z,1004.82
2018-11-25T01:09:57.715Z,1004.8
2018-11-25T01:10:23.822Z,1004.82
2018-11-25T01:10:49.984Z,1004.82
2018-11-25T01:11:16.120Z,1004.84
2018-11-25T01:11:42.286Z,1004.79
2018-11-25T01:12:08.394Z,1004.81
2018-11-25T01:12:34.501Z,1004.83
2018-11-25T01:13:00.714Z,1004.79
2018-11-25T01:13:26.887Z,1004.8
2018-11-25T01:13:53.090Z,1004.84
2018-11-25T01:14:19.244Z,1004.81
2018-11-25T01:14:45.341Z,1004.83
2018-11-25T01:15:11.539Z,1004.82
2018-11-25T01:15:37.665Z,1004.83
2018-11-25T01:16:03.832Z,1004.82
2018-11-25T01:16:29.943Z,1004.84
2018-11-25T01:16:56.043Z,1004.84
2018-11-25T01:17:22.205Z,1004.8
2018-11-25T01:17:48.343Z,1004.83
2018-11-25T01:18:14.502Z,1004.79
2018-11-25T01:18:40.636Z,1004.84
2018-11-25T01:19:06.820Z,1004.81
2018-11-25T01:19:32.954Z,1004.82
2018-11-25T01:19:59.114Z,1004.79
2018-11-25T01:20:25.278Z,1004.83
2018-11-25T01:20:51.420Z,1004.82
2018-11-25T01:21:17.580Z,1004.81
2018-11-25T01:21:43.752Z,1004.81
2018-11-25T01:22:09.876Z,1004.85
2018-11-25T01:22:36.036Z,1004.8
2018-11-25T01:23:02.203Z,1004.83
2018-11-25T01:23:28.338Z,1004.84
2018-11-25T01:23:54.502Z,1004.85
2018-11-25T01:24:20.610Z,1004.83
2018-11-25T01:24:46.773Z,1004.86
2018-11-25T01:25:12.908Z,1004.84
2018-11-25T01:25:39.065Z,1004.86
2018-11-25T01:26:05.254Z,1004.87
2018-11-25T01:26:31.391Z,1004.85
2018-11-25T01:26:57.490Z,1004.85
2018-11-25T01:27:23.627Z,1004.86
2018-11-25T01:27:49.761Z,1004.88
2018-11-25T01:28:15.870Z,1004.86
2018-11-25T01:28:41.976Z,1004.86
2018-11-25T01:29:08.150Z,1004.88
2018-11-25T01:29:34.273Z,1004.87
2018-11-25T01:30:00.408Z,1004.88
2018-11-25T01:30:26.576Z,1004.88
2018-11-25T01:30:52.734Z,1004.88
2018-11-25T01:31:18.875Z,1004.89
2018-11-25T01:31:44.984Z,1004.91
2018-11-25T01:32:11.182Z,1004.88
2018-11-25T01:32:37.373Z,1004.88
2018-11-25T01:33:03.544Z,1004.87
2018-11-25T01:33:29.668Z,1004.9
2018-11-25T01:33:55.832Z,1004.87
2018-11-25T01:34:21.959Z,1004.85
2018-11-25T01:34:48.155Z,1004.88
2018-11-25T01:35:15.320Z,1004.88
2018-11-25T01:35:41.483Z,1004.89
2018-11-25T01:36:07.815Z,1004.87
2018-11-25T01:36:34.030Z,1004.87
2018-11-25T01:37:00.155Z,1004.9
2018-11-25T01:37:26.326Z,1004.86
2018-11-25T01:37:52.489Z,1004.89
2018-11-25T01:38:18.623Z,1004.86
2018-11-25T01:38:44.812Z,1004.86
2018-11-25T01:39:11.052Z,1004.85
2018-11-25T01:39:37.190Z,1004.86
2018-11-25T01:40:03.298Z,1004.85
2018-11-25T01:40:29.429Z,1004.85
2018-11-25T01:40:55.533Z,1004.85
2018-11-25T01:41:21.702Z,1004.88
2018-11-25T01:41:47.814Z,1004.83
2018-11-25T01:42:13.916Z,1004.83
2018-11-25T01:42:40.027Z,1004.85
2018-11-25T01:43:06.166Z,1004.85
2018-11-25T01:43:32.307Z,1004.87
2018-11-25T01:43:58.460Z,1004.81
2018-11-25T01:44:24.592Z,1004.83
2018-11-25T01:44:50.752Z,1004.83
2018-11-25T01:45:16.904Z,1004.8
2018-11-25T01:45:43.054Z,1004.84
2018-11-25T01:46:09.184Z,1004.86
2018-11-25T01:46:35.301Z,1004.84
2018-11-25T01:47:01.489Z,1004.82
2018-11-25T01:47:27.621Z,1004.84
2018-11-25T01:47:53.755Z,1004.83
2018-11-25T01:48:19.895Z,1004.82
2018-11-25T01:48:46.033Z,1004.84
2018-11-25T01:49:12.189Z,1004.82
2018-11-25T01:49:38.341Z,1004.79
2018-11-25T01:50:04.511Z,1004.84
2018-11-25T01:50:30.649Z,1004.8
2018-11-25T01:50:56.773Z,1004.82
2018-11-25T01:51:22.884Z,1004.84
2018-11-25T01:51:49.017Z,1004.85
2018-11-25T01:52:15.186Z,1004.83
2018-11-25T01:52:41.327Z,1004.86
2018-11-25T01:53:07.521Z,1004.83
2018-11-25T01:53:33.621Z,1004.84
2018-11-25T01:53:59.798Z,1004.83
2018-11-25T01:54:25.928Z,1004.82
2018-11-25T01:54:52.062Z,1004.86
2018-11-25T01:55:18.171Z,1004.79
2018-11-25T01:55:44.333Z,1004.84
2018-11-25T01:56:10.468Z,1004.86
2018-11-25T01:56:36.604Z,1004.79
2018-11-25T01:57:02.731Z,1004.83
2018-11-25T01:57:28.893Z,1004.82
2018-11-25T01:57:55.069Z,1004.82
2018-11-25T01:58:21.199Z,1004.79
2018-11-25T01:58:47.336Z,1004.79
2018-11-25T01:59:13.528Z,1004.78
2018-11-25T01:59:39.671Z,1004.77
2018-11-25T02:00:05.862Z,1004.74
2018-11-25T02:00:32.021Z,1004.77
2018-11-25T02:00:58.204Z,1004.75
2018-11-25T02:01:24.394Z,1004.77
2018-11-25T02:01:50.584Z,1004.76
2018-11-25T02:02:16.718Z,1004.77
2018-11-25T02:02:42.878Z,1004.79
2018-11-25T02:03:09.041Z,1004.75
2018-11-25T02:03:35.237Z,1004.77
2018-11-25T02:04:01.517Z,1004.73
2018-11-25T02:04:27.657Z,1004.75
2018-11-25T02:04:53.776Z,1004.74
2018-11-25T02:05:19.944Z,1004.73
2018-11-25T02:05:46.111Z,1004.79
2018-11-25T02:06:12.402Z,1004.74
2018-11-25T02:06:38.508Z,1004.74
2018-11-25T02:07:04.613Z,1004.73
2018-11-25T02:07:30.800Z,1004.76
2018-11-25T02:07:56.962Z,1004.75
2018-11-25T02:08:23.098Z,1004.73
2018-11-25T02:08:49.283Z,1004.73
2018-11-25T02:09:15.398Z,1004.73
2018-11-25T02:09:41.522Z,1004.74
2018-11-25T02:10:07.690Z,1004.68
2018-11-25T02:10:33.800Z,1004.71
2018-11-25T02:10:59.934Z,1004.68
2018-11-25T02:11:26.063Z,1004.71
2018-11-25T02:11:52.194Z,1004.71
2018-11-25T02:12:18.331Z,1004.69
2018-11-25T02:12:44.503Z,1004.7
2018-11-25T02:13:10.632Z,1004.7
2018-11-25T02:13:36.762Z,1004.7
2018-11-25T02:14:02.905Z,1004.69
2018-11-25T02:14:29.039Z,1004.71
2018-11-25T02:14:55.201Z,1004.72
2018-11-25T02:15:21.361Z,1004.69
2018-11-25T02:15:47.504Z,1004.71
2018-11-25T02:16:13.641Z,1004.69
2018-11-25T02:16:39.804Z,1004.65
2018-11-25T02:17:05.914Z,1004.7
2018-11-25T02:17:32.060Z,1004.71
2018-11-25T02:17:58.210Z,1004.69
2018-11-25T02:18:24.375Z,1004.71
2018-11-25T02:18:50.502Z,1004.69
2018-11-25T02:19:16.627Z,1004.7
2018-11-25T02:19:42.786Z,1004.65
2018-11-25T02:20:08.920Z,1004.67
2018-11-25T02:20:35.059Z,1004.65
2018-11-25T02:21:01.226Z,1004.64
2018-11-25T02:21:27.359Z,1004.63
2018-11-25T02:21:53.469Z,1004.65
2018-11-25T02:22:19.634Z,1004.69
2018-11-25T02:22:45.801Z,1004.69
2018-11-25T02:23:11.940Z,1004.67
2018-11-25T02:23:38.099Z,1004.63
2018-11-25T02:24:04.205Z,1004.68
2018-11-25T02:24:30.367Z,1004.68
2018-11-25T02:24:56.522Z,1004.67
2018-11-25T02:25:22.712Z,1004.65
2018-11-25T02:25:48.849Z,1004.65
2018-11-25T02:26:15.040Z,1004.61
2018-11-25T02:26:41.203Z,1004.63
2018-11-25T02:27:07.343Z,1004.63
2018-11-25T02:27:33.468Z,1004.6
2018-11-25T02:27:59.577Z,1004.6
2018-11-25T02:28:25.721Z,1004.59
2018-11-25T02:28:51.854Z,1004.61
2018-11-25T02:29:17.989Z,1004.64
2018-11-25T02:29:44.121Z,1004.6
2018-11-25T02:30:10.288Z,1004.58
2018-11-25T02:30:36.510Z,1004.59
2018-11-25T02:31:02.709Z,1004.59
2018-11-25T02:31:28.808Z,1004.55
2018-11-25T02:31:54.978Z,1004.55
2018-11-25T02:32:21.080Z,1004.55
2018-11-25T02:32:47.221Z,1004.57
2018-11-25T02:33:13.330Z,1004.55
2018-11-25T02:33:39.462Z,1004.55
2018-11-25T02:34:05.596Z,1004.52
2018-11-25T02:34:31.705Z,1004.55
2018-11-25T02:34:57.833Z,1004.54
2018-11-25T02:35:23.986Z,1004.57
2018-11-25T02:35:50.101Z,1004.56
2018-11-25T02:36:16.238Z,1004.56
2018-11-25T02:36:42.416Z,1004.57
2018-11-25T02:37:08.555Z,1004.57
2018-11-25T02:37:34.724Z,1004.54
2018-11-25T02:38:00.884Z,1004.56
2018-11-25T02:38:26.993Z,1004.55
2018-11-25T02:38:53.151Z,1004.54
2018-11-25T02:39:19.323Z,1004.56
2018-11-25T02:39:45.462Z,1004.56
2018-11-25T02:40:11.649Z,1004.52
2018-11-25T02:40:37.846Z,1004.54
2018-11-25T02:41:04.045Z,1004.52
2018-11-25T02:41:30.184Z,1004.53
2018-11-25T02:41:56.323Z,1004.53
2018-11-25T02:42:22.489Z,1004.53
2018-11-25T02:42:48.647Z,1004.55
2018-11-25T02:43:14.791Z,1004.54
2018-11-25T02:43:40.973Z,1004.54
2018-11-25T02:44:07.109Z,1004.56
2018-11-25T02:44:33.246Z,1004.54
2018-11-25T02:44:59.350Z,1004.51
2018-11-25T02:45:25.543Z,1004.55
2018-11-25T02:45:51.698Z,1004.52
2018-11-25T02:46:17.835Z,1004.52
2018-11-25T02:46:44.003Z,1004.51
2018-11-25T02:47:10.147Z,1004.51
2018-11-25T02:47:36.249Z,1004.5
2018-11-25T02:48:02.387Z,1004.47
2018-11-25T02:48:28.527Z,1004.48
2018-11-25T02:48:54.689Z,1004.49
2018-11-25T02:49:20.795Z,1004.51
2018-11-25T02:49:46.984Z,1004.53
2018-11-25T02:50:13.096Z,1004.49
2018-11-25T02:50:39.190Z,1004.52
2018-11-25T02:51:05.360Z,1004.51
2018-11-25T02:51:31.492Z,1004.47
2018-11-25T02:51:57.604Z,1004.48
2018-11-25T02:52:23.734Z,1004.49
2018-11-25T02:52:49.848Z,1004.52
2018-11-25T02:53:15.976Z,1004.51
2018-11-25T02:53:42.147Z,1004.47
2018-11-25T02:54:08.307Z,1004.51
2018-11-25T02:54:34.440Z,1004.51
2018-11-25T02:55:00.605Z,1004.51
2018-11-25T02:55:26.740Z,1004.54
2018-11-25T02:55:52.858Z,1004.5
2018-11-25T02:56:19.022Z,1004.46
2018-11-25T02:56:45.132Z,1004.53
2018-11-25T02:57:11.312Z,1004.48
2018-11-25T02:57:37.446Z,1004.49
2018-11-25T02:58:03.582Z,1004.51
2018-11-25T02:58:29.720Z,1004.48
2018-11-25T02:58:55.903Z,1004.51
2018-11-25T02:59:22.012Z,1004.49
2018-11-25T02:59:48.147Z,1004.48
2018-11-25T03:00:14.256Z,1004.46
2018-11-25T03:00:40.437Z,1004.48
2018-11-25T03:01:06.565Z,1004.52
2018-11-25T03:01:32.666Z,1004.51
2018-11-25T03:01:58.801Z,1004.51
2018-11-25T03:02:24.965Z,1004.51
2018-11-25T03:02:51.133Z,1004.5
2018-11-25T03:03:17.332Z,1004.54
2018-11-25T03:03:43.467Z,1004.46
2018-11-25T03:04:09.591Z,1004.44
2018-11-25T03:04:35.805Z,1004.5
2018-11-25T03:05:01.977Z,1004.47
2018-11-25T03:05:28.095Z,1004.48
2018-11-25T03:05:54.292Z,1004.5
2018-11-25T03:06:20.476Z,1004.51
2018-11-25T03:06:46.624Z,1004.53
2018-11-25T03:07:12.766Z,1004.55
2018-11-25T03:07:38.956Z,1004.55
2018-11-25T03:08:05.106Z,1004.57
2018-11-25T03:08:31.242Z,1004.56
2018-11-25T03:08:57.372Z,1004.57
2018-11-25T03:09:23.521Z,1004.53
2018-11-25T03:09:49.676Z,1004.56
2018-11-25T03:10:15.818Z,1004.56
2018-11-25T03:10:41.978Z,1004.58
2018-11-25T03:11:08.175Z,1004.57
2018-11-25T03:11:34.282Z,1004.58
2018-11-25T03:12:00.385Z,1004.58
2018-11-25T03:12:26.511Z,1004.56
2018-11-25T03:12:52.678Z,1004.57
2018-11-25T03:13:18.861Z,1004.56
2018-11-25T03:13:44.998Z,1004.57
2018-11-25T03:14:11.126Z,1004.56
2018-11-25T03:14:37.236Z,1004.57
2018-11-25T03:15:03.381Z,1004.54
2018-11-25T03:15:29.573Z,1004.57
2018-11-25T03:15:55.729Z,1004.56
2018-11-25T03:16:21.926Z,1004.58
2018-11-25T03:16:48.082Z,1004.58
2018-11-25T03:17:14.187Z,1004.57
2018-11-25T03:17:40.330Z,1004.59
2018-11-25T03:18:06.517Z,1004.6
2018-11-25T03:18:32.681Z,1004.55
2018-11-25T03:18:58.813Z,1004.59
2018-11-25T03:19:24.942Z,1004.58
2018-11-25T03:19:51.081Z,1004.58
2018-11-25T03:20:17.215Z,1004.62
2018-11-25T03:20:43.361Z,1004.58
2018-11-25T03:21:09.496Z,1004.59
2018-11-25T03:21:35.629Z,1004.59
2018-11-25T03:22:01.762Z,1004.6
2018-11-25T03:22:27.898Z,1004.57
2018-11-25T03:22:54.028Z,1004.57
2018-11-25T03:23:20.169Z,1004.6
2018-11-25T03:23:46.306Z,1004.58
2018-11-25T03:24:12.446Z,1004.57
2018-11-25T03:24:38.606Z,1004.58
2018-11-25T03:25:04.716Z,1004.62
2018-11-25T03:25:30.824Z,1004.63
2018-11-25T03:25:56.957Z,1004.57
2018-11-25T03:26:23.091Z,1004.57
2018-11-25T03:26:49.216Z,1004.59
2018-11-25T03:27:15.358Z,1004.57
2018-11-25T03:27:41.458Z,1004.54
2018-11-25T03:28:07.596Z,1004.57
2018-11-25T03:28:33.701Z,1004.59
2018-11-25T03:28:59.843Z,1004.58
2018-11-25T03:29:26.003Z,1004.58
2018-11-25T03:29:52.140Z,1004.65
2018-11-25T03:30:18.307Z,1004.6
2018-11-25T03:30:44.413Z,1004.62
2018-11-25T03:31:10.546Z,1004.62
2018-11-25T03:31:36.643Z,1004.63
2018-11-25T03:32:02.755Z,1004.64
2018-11-25T03:32:28.886Z,1004.62
2018-11-25T03:32:55.044Z,1004.62
2018-11-25T03:33:21.206Z,1004.69
2018-11-25T03:33:47.353Z,1004.64
2018-11-25T03:34:13.514Z,1004.65
2018-11-25T03:34:39.648Z,1004.72
2018-11-25T03:35:05.752Z,1004.66
2018-11-25T03:35:31.891Z,1004.67
2018-11-25T03:35:58.057Z,1004.65
2018-11-25T03:36:24.244Z,1004.67
2018-11-25T03:36:50.392Z,1004.65
2018-11-25T03:37:16.540Z,1004.66
2018-11-25T03:37:42.678Z,1004.67
2018-11-25T03:38:08.871Z,1004.67
2018-11-25T03:38:35.005Z,1004.66
2018-11-25T03:39:01.172Z,1004.67
2018-11-25T03:39:27.310Z,1004.68
2018-11-25T03:39:53.465Z,1004.67
2018-11-25T03:40:19.635Z,1004.72
2018-11-25T03:40:45.767Z,1004.68
2018-11-25T03:41:11.959Z,1004.71
2018-11-25T03:41:38.094Z,1004.73
2018-11-25T03:42:04.237Z,1004.7
2018-11-25T03:42:30.362Z,1004.71
2018-11-25T03:42:56.506Z,1004.74
2018-11-25T03:43:22.758Z,1004.71
2018-11-25T03:43:48.924Z,1004.72
2018-11-25T03:44:15.058Z,1004.68
2018-11-25T03:44:41.162Z,1004.7
2018-11-25T03:45:07.296Z,1004.69
2018-11-25T03:45:33.515Z,1004.71
2018-11-25T03:45:59.618Z,1004.74
2018-11-25T03:46:25.745Z,1004.7
2018-11-25T03:46:51.884Z,1004.77
2018-11-25T03:47:18.078Z,1004.7
2018-11-25T03:47:44.185Z,1004.76
2018-11-25T03:48:10.313Z,1004.74
2018-11-25T03:48:36.507Z,1004.75
2018-11-25T03:49:02.668Z,1004.71
2018-11-25T03:49:28.840Z,1004.75
2018-11-25T03:49:54.972Z,1004.75
2018-11-25T03:50:21.168Z,1004.73
2018-11-25T03:50:47.386Z,1004.72
2018-11-25T03:51:13.491Z,1004.74
2018-11-25T03:51:39.626Z,1004.74
2018-11-25T03:52:05.733Z,1004.71
2018-11-25T03:52:31.844Z,1004.75
2018-11-25T03:52:58.030Z,1004.8
2018-11-25T03:53:24.131Z,1004.76
2018-11-25T03:53:50.272Z,1004.76
2018-11-25T03:54:16.408Z,1004.78
2018-11-25T03:54:42.543Z,1004.77
2018-11-25T03:55:08.764Z,1004.77
2018-11-25T03:55:34.899Z,1004.79
2018-11-25T03:56:01.054Z,1004.79
2018-11-25T03:56:27.199Z,1004.82
2018-11-25T03:56:53.333Z,1004.81
2018-11-25T03:57:19.435Z,1004.8
2018-11-25T03:57:45.577Z,1004.82
2018-11-25T03:58:11.746Z,1004.82
2018-11-25T03:58:37.874Z,1004.83
2018-11-25T03:59:03.978Z,1004.82
2018-11-25T03:59:30.084Z,1004.83
2018-11-25T03:59:56.249Z,1004.86
2018-11-25T04:00:22.387Z,1004.81
2018-11-25T04:00:48.489Z,1004.82
2018-11-25T04:01:14.682Z,1004.82
2018-11-25T04:01:40.795Z,1004.84
2018-11-25T04:02:06.925Z,1004.83
2018-11-25T04:02:33.141Z,1004.86
2018-11-25T04:02:59.310Z,1004.85
2018-11-25T04:03:25.439Z,1004.84
2018-11-25T04:03:51.583Z,1004.85
2018-11-25T04:04:17.716Z,1004.88
2018-11-25T04:04:43.855Z,1004.88
2018-11-25T04:05:09.957Z,1004.89
2018-11-25T04:05:36.092Z,1004.92
2018-11-25T04:06:02.226Z,1004.89
2018-11-25T04:06:28.390Z,1004.88
2018-11-25T04:06:54.521Z,1004.88
2018-11-25T04:07:20.710Z,1004.9
2018-11-25T04:07:46.848Z,1004.88
2018-11-25T04:08:12.981Z,1004.88
2018-11-25T04:08:39.149Z,1004.87
2018-11-25T04:09:05.288Z,1004.9
2018-11-25T04:09:31.461Z,1004.91
2018-11-25T04:09:57.583Z,1004.87
2018-11-25T04:10:23.765Z,1004.91
2018-11-25T04:10:49.896Z,1004.93
2018-11-25T04:11:16.030Z,1004.92
2018-11-25T04:11:42.203Z,1004.9
2018-11-25T04:12:08.390Z,1004.91
2018-11-25T04:12:34.587Z,1004.9
2018-11-25T04:13:00.751Z,1004.89
2018-11-25T04:13:26.918Z,1004.9
2018-11-25T04:13:53.049Z,1004.9
2018-11-25T04:14:19.243Z,1004.88
2018-11-25T04:14:45.402Z,1004.89
2018-11-25T04:15:11.532Z,1004.93
2018-11-25T04:15:37.666Z,1004.92
2018-11-25T04:16:03.863Z,1004.92
2018-11-25T04:16:30.018Z,1004.95
2018-11-25T04:16:56.153Z,1004.94
2018-11-25T04:17:22.319Z,1004.93
2018-11-25T04:17:48.509Z,1004.94
2018-11-25T04:18:14.644Z,1004.93
2018-11-25T04:18:40.809Z,1004.97
2018-11-25T04:19:07.071Z,1004.95
2018-11-25T04:19:33.237Z,1004.93
2018-11-25T04:19:59.344Z,1004.95
2018-11-25T04:20:25.509Z,1004.92
2018-11-25T04:20:51.692Z,1004.91
2018-11-25T04:21:17.827Z,1004.95
2018-11-25T04:21:43.966Z,1004.96
2018-11-25T04:22:10.127Z,1004.96
2018-11-25T04:22:36.346Z,1004.94
2018-11-25T04:23:02.446Z,1004.95
2018-11-25T04:23:28.632Z,1004.95
2018-11-25T04:23:54.803Z,1004.98
2018-11-25T04:24:20.962Z,1004.98
2018-11-25T04:24:47.125Z,1004.99
2018-11-25T04:25:13.311Z,1004.97
2018-11-25T04:25:39.443Z,1005.01
2018-11-25T04:26:05.612Z,1004.95
2018-11-25T04:26:31.715Z,1004.95
2018-11-25T04:26:57.817Z,1004.99
2018-11-25T04:27:23.923Z,1004.97
2018-11-25T04:27:50.103Z,1004.94
2018-11-25T04:28:16.279Z,1004.91
2018-11-25T04:28:42.409Z,1004.96
2018-11-25T04:29:08.546Z,1004.94
2018-11-25T04:29:34.702Z,1004.96
2018-11-25T04:30:00.842Z,1004.97
2018-11-25T04:30:27.002Z,1004.93
2018-11-25T04:30:53.190Z,1004.98
2018-11-25T04:31:19.297Z,1004.97
2018-11-25T04:31:45.409Z,1004.97
2018-11-25T04:32:11.600Z,1004.94
2018-11-25T04:32:37.745Z,1004.93
2018-11-25T04:33:03.868Z,1004.97
2018-11-25T04:33:30.056Z,1004.92
2018-11-25T04:33:56.191Z,1004.94
2018-11-25T04:34:22.351Z,1004.9
2018-11-25T04:34:48.482Z,1004.93
2018-11-25T04:35:14.622Z,1004.94
2018-11-25T04:35:40.841Z,1004.95
2018-11-25T04:36:07.030Z,1004.87
2018-11-25T04:36:33.202Z,1004.89
2018-11-25T04:36:59.354Z,1004.91
2018-11-25T04:37:25.493Z,1004.92
2018-11-25T04:37:51.634Z,1004.9
2018-11-25T04:38:17.795Z,1004.88
2018-11-25T04:38:43.959Z,1004.87
2018-11-25T04:39:10.134Z,1004.91
2018-11-25T04:39:36.236Z,1004.88
2018-11-25T04:40:02.379Z,1004.86
2018-11-25T04:40:28.538Z,1004.87
2018-11-25T04:40:54.680Z,1004.9
2018-11-25T04:41:20.820Z,1004.87
2018-11-25T04:41:46.991Z,1004.87
2018-11-25T04:42:13.125Z,1004.87
2018-11-25T04:42:39.233Z,1004.86
2018-11-25T04:43:05.331Z,1004.85
2018-11-25T04:43:31.448Z,1004.87
2018-11-25T04:43:57.548Z,1004.87
2018-11-25T04:44:23.695Z,1004.87
2018-11-25T04:44:49.834Z,1004.87
2018-11-25T04:45:15.942Z,1004.87
2018-11-25T04:45:42.124Z,1004.86
2018-11-25T04:46:08.235Z,1004.87
2018-11-25T04:46:34.335Z,1004.85
2018-11-25T04:47:00.526Z,1004.83
2018-11-25T04:47:26.723Z,1004.86
2018-11-25T04:47:52.851Z,1004.86
2018-11-25T04:48:19.015Z,1004.83
2018-11-25T04:48:45.121Z,1004.79
2018-11-25T04:49:11.279Z,1004.79
2018-11-25T04:49:37.407Z,1004.8
2018-11-25T04:50:03.568Z,1004.78
2018-11-25T04:50:29.705Z,1004.8
2018-11-25T04:50:55.836Z,1004.8
2018-11-25T04:51:21.939Z,1004.8
2018-11-25T04:51:48.101Z,1004.8
2018-11-25T04:52:14.233Z,1004.81
2018-11-25T04:52:41.091Z,1004.75
2018-11-25T04:53:07.287Z,1004.75
2018-11-25T04:53:33.423Z,1004.77
2018-11-25T04:53:59.591Z,1004.78
2018-11-25T04:54:25.775Z,1004.79
2018-11-25T04:54:51.966Z,1004.75
2018-11-25T04:55:18.170Z,1004.75
2018-11-25T04:55:44.300Z,1004.76
2018-11-25T04:56:10.405Z,1004.74
2018-11-25T04:56:36.567Z,1004.73
2018-11-25T04:57:02.722Z,1004.74
2018-11-25T04:57:28.884Z,1004.72
2018-11-25T04:57:55.014Z,1004.73
2018-11-25T04:58:21.153Z,1004.75
2018-11-25T04:58:47.316Z,1004.76
2018-11-25T04:59:13.422Z,1004.75
2018-11-25T04:59:39.614Z,1004.71
2018-11-25T05:00:05.755Z,1004.72
2018-11-25T05:00:31.999Z,1004.73
2018-11-25T05:00:58.155Z,1004.73
2018-11-25T05:01:24.356Z,1004.73
2018-11-25T05:01:50.498Z,1004.75
2018-11-25T05:02:16.597Z,1004.72
2018-11-25T05:02:42.763Z,1004.72
2018-11-25T05:03:08.874Z,1004.72
2018-11-25T05:03:35.072Z,1004.74
2018-11-25T05:04:01.179Z,1004.76
2018-11-25T05:04:27.309Z,1004.76
2018-11-25T05:04:53.508Z,1004.77
2018-11-25T05:05:19.679Z,1004.8
2018-11-25T05:05:45.843Z,1004.79
2018-11-25T05:06:11.995Z,1004.8
2018-11-25T05:06:38.156Z,1004.8
2018-11-25T05:07:04.342Z,1004.81
2018-11-25T05:07:30.451Z,1004.81
2018-11-25T05:07:56.583Z,1004.8
2018-11-25T05:08:22.773Z,1004.8
2018-11-25T05:08:48.902Z,1004.81
2018-11-25T05:09:15.032Z,1004.81
2018-11-25T05:09:41.247Z,1004.82
2018-11-25T05:10:07.350Z,1004.8
2018-11-25T05:10:33.473Z,1004.8
2018-11-25T05:10:59.606Z,1004.84
2018-11-25T05:11:25.714Z,1004.83
2018-11-25T05:11:51.852Z,1004.84
2018-11-25T05:12:17.982Z,1004.84
2018-11-25T05:12:44.105Z,1004.88
2018-11-25T05:13:10.272Z,1004.86
2018-11-25T05:13:36.436Z,1004.88
2018-11-25T05:14:02.581Z,1004.86
2018-11-25T05:14:28.700Z,1004.87
2018-11-25T05:14:54.867Z,1004.91
2018-11-25T05:15:21.078Z,1004.89
2018-11-25T05:15:47.214Z,1004.87
2018-11-25T05:16:13.369Z,1004.89
2018-11-25T05:16:39.572Z,1004.89
2018-11-25T05:17:05.684Z,1004.87